Heat Index SAI AWOS Graphical Display Untitled Document
Chester, CT
219
21:42
24 JUN 12
05
N/A
N/A
29.93
1600
416
75(F), 24(C)
55(F), 13(C)
78 F
48%
CLR
10+
NO PRECIPITATION
N/A
N/A
21:42 zulu Wind 219 at 05 Knots, Altimeter 29.93
METAR KSNC 242142Z AUTO 22005KT 10+SM CLR 24/13 A2993 A02
METAR:
FAA Disclaimer--Advisory Use ONLY, not for flight info-- Come visit Chester, CT airport. Best Fuel Prices around! .. Pilots with cellphones (smartphones) can now view awos at http://www.saiawos3.com/SNC
INFO:
Wind Direction:
Wind Speed:
Wind Gust:
Wind Variable:
Altimeter:
Dens Alt:
Elev:
Temp:
Dwpt:
Heat Index
Rel Humidity:
Ceiling:
Visibility:
Prsnt Wea:
PCPN:
Remarks:
Stanwyck Avionics is working with airport personnel to bring (SNC) online soon. Keep checking back.
How to read the WebPage